Time;durP1;ratioP1;P1;durP2;ratioP2;P2;SDS_P1;SDS_P2;PMS_P1;PMS_P2;Temp;Humidity;BMP_temperature;BMP_pressure;BME280_temperature;BME280_humidity;BME280_pressure;Samples;Min_cycle;Max_cycle;Signal;HPM_P1;HPM_P2
2021/11/24 00:01:27;;;;;;;346.10;79.25;;;;;;;5.82;100.00;102798.94;5184345;28;20495;-80
2021/11/24 00:03:57;;;;;;;372.58;85.65;;;;;;;5.80;100.00;102803.50;5184509;28;20036;-79
2021/11/24 00:06:28;;;;;;;371.70;82.60;;;;;;;5.80;100.00;102805.31;5183725;28;20022;-79
2021/11/24 00:08:58;;;;;;;372.75;79.80;;;;;;;5.80;100.00;102805.31;5180596;28;20054;-79
2021/11/24 00:11:29;;;;;;;291.30;74.65;;;;;;;5.78;100.00;102800.06;5165084;28;20030;-79
2021/11/24 00:13:59;;;;;;;284.83;73.35;;;;;;;5.77;100.00;102793.00;5173254;28;20421;-80
2021/11/24 00:16:30;;;;;;;283.15;73.30;;;;;;;5.76;100.00;102793.97;5185842;28;20358;-79
2021/11/24 00:19:00;;;;;;;312.13;78.90;;;;;;;5.74;100.00;102793.19;5177108;28;20022;-79
2021/11/24 00:21:31;;;;;;;294.65;72.38;;;;;;;5.74;100.00;102785.22;5180018;28;20096;-80
2021/11/24 00:24:01;;;;;;;283.60;73.47;;;;;;;5.75;100.00;102786.06;5185499;28;20026;-79
2021/11/24 00:26:32;;;;;;;248.75;69.22;;;;;;;5.74;100.00;102781.69;5184670;28;20076;-79
2021/11/24 00:29:02;;;;;;;245.70;66.63;;;;;;;5.72;100.00;102784.41;5185730;28;20520;-80
2021/11/24 00:31:33;;;;;;;238.15;70.13;;;;;;;5.74;100.00;102782.56;5185896;28;20030;-80
2021/11/24 00:34:04;;;;;;;255.30;68.60;;;;;;;5.74;100.00;102789.69;5185866;28;20029;-79
2021/11/24 00:36:34;;;;;;;277.05;74.38;;;;;;;5.72;100.00;102790.63;5185193;28;20096;-79
2021/11/24 00:39:04;;;;;;;224.05;64.53;;;;;;;5.71;100.00;102794.22;5186003;28;20113;-80
2021/11/24 00:41:35;;;;;;;248.02;63.90;;;;;;;5.76;100.00;102791.28;5186099;28;20362;-80
2021/11/24 00:44:06;;;;;;;238.55;66.60;;;;;;;5.76;100.00;102787.78;5185774;28;20481;-79
2021/11/24 00:46:37;;;;;;;251.43;69.22;;;;;;;5.73;100.00;102791.50;5185718;28;20385;-80
2021/11/24 00:49:08;;;;;;;245.07;68.55;;;;;;;5.71;100.00;102788.88;5184594;28;20030;-80
2021/11/24 00:51:38;;;;;;;261.38;70.63;;;;;;;5.69;100.00;102784.63;5184539;28;20590;-80
2021/11/24 00:54:09;;;;;;;213.07;62.92;;;;;;;5.66;100.00;102785.63;5185575;28;20085;-79
2021/11/24 00:56:39;;;;;;;218.02;61.50;;;;;;;5.64;100.00;102784.88;5185967;28;20536;-79
2021/11/24 00:59:10;;;;;;;228.93;61.63;;;;;;;5.62;100.00;102784.13;5185623;28;20056;-79
2021/11/24 01:01:40;;;;;;;246.18;63.13;;;;;;;5.61;100.00;102777.03;5185688;28;20501;-79
2021/11/24 01:04:11;;;;;;;220.73;63.55;;;;;;;5.60;100.00;102782.47;5184302;28;20821;-79
2021/11/24 01:06:41;;;;;;;196.73;58.58;;;;;;;5.61;100.00;102778.84;5185387;28;20034;-79
2021/11/24 01:09:12;;;;;;;222.68;61.33;;;;;;;5.60;100.00;102770.00;5185504;28;20042;-79
2021/11/24 01:11:43;;;;;;;249.07;64.50;;;;;;;5.58;100.00;102771.91;5184987;28;20393;-79
2021/11/24 01:14:13;;;;;;;227.95;61.95;;;;;;;5.60;100.00;102775.34;5177832;28;20102;-79
2021/11/24 01:16:44;;;;;;;244.18;67.03;;;;;;;5.60;100.00;102771.81;5184386;28;20026;-80
2021/11/24 01:19:15;;;;;;;246.48;66.50;;;;;;;5.59;100.00;102768.31;5185022;28;20030;-80
2021/11/24 01:21:46;;;;;;;238.75;66.07;;;;;;;5.60;100.00;102769.16;5186169;28;20113;-80
2021/11/24 01:24:16;;;;;;;242.02;63.45;;;;;;;5.60;100.00;102764.69;5185849;28;20117;-80
2021/11/24 01:26:47;;;;;;;243.48;68.25;;;;;;;5.60;100.00;102761.16;5185623;28;20022;-80
2021/11/24 01:29:17;;;;;;;288.55;68.43;;;;;;;5.61;100.00;102770.88;5188162;28;20029;-80
2021/11/24 01:31:48;;;;;;;265.10;65.15;;;;;;;5.60;100.00;102759.38;5189470;28;20073;-80
2021/11/24 01:34:18;;;;;;;248.52;67.32;;;;;;;5.60;100.00;102761.16;5188447;28;20029;-85
2021/11/24 01:36:49;;;;;;;212.93;64.20;;;;;;;5.58;100.00;102755.94;5187813;28;20025;-79
2021/11/24 01:39:19;;;;;;;231.68;66.28;;;;;;;5.60;100.00;102754.03;5188276;28;20039;-79
2021/11/24 01:41:50;;;;;;;251.27;68.38;;;;;;;5.60;100.00;102755.84;5188113;28;20033;-79
2021/11/24 01:44:23;;;;;;;288.30;71.30;;;;;;;5.60;100.00;102751.38;5187564;28;20096;-79
2021/11/24 01:46:57;;;;;;;204.68;60.88;;;;;;;5.61;100.00;102750.41;5187447;28;20057;-79
2021/11/24 01:49:29;;;;;;;221.55;65.22;;;;;;;5.62;100.00;102754.81;5187985;28;20418;-79
2021/11/24 01:52:00;;;;;;;190.48;56.92;;;;;;;5.64;100.00;102754.72;5187777;28;20396;-79
2021/11/24 01:54:31;;;;;;;231.93;63.92;;;;;;;5.61;100.00;102746.91;5187160;28;20091;-79
2021/11/24 01:57:02;;;;;;;203.13;59.60;;;;;;;5.60;100.00;102739.88;5187588;28;20026;-79
2021/11/24 01:59:33;;;;;;;199.70;61.40;;;;;;;5.68;100.00;102737.63;5187678;28;20026;-79
2021/11/24 02:02:03;;;;;;;216.52;65.03;;;;;;;5.70;100.00;102731.25;5187704;28;20040;-79
2021/11/24 02:04:34;;;;;;;218.52;63.03;;;;;;;5.68;100.00;102727.84;5187563;28;20643;-79
2021/11/24 02:07:04;;;;;;;210.88;64.38;;;;;;;5.67;100.00;102730.56;5187571;28;20025;-79
2021/11/24 02:09:35;;;;;;;224.55;64.05;;;;;;;5.65;100.00;102730.66;5177536;28;20034;-79
2021/11/24 02:12:07;;;;;;;234.57;65.40;;;;;;;5.66;100.00;102727.06;5168722;28;20062;-79
2021/11/24 02:14:38;;;;;;;181.02;55.63;;;;;;;5.66;100.00;102716.41;5179109;28;20045;-79
2021/11/24 02:17:12;;;;;;;224.43;65.13;;;;;;;5.67;100.00;102712.81;5187008;28;20641;-80
2021/11/24 02:19:43;;;;;;;227.27;63.58;;;;;;;5.66;100.00;102718.19;5187134;28;20029;-79
2021/11/24 02:22:14;;;;;;;244.10;66.53;;;;;;;5.66;100.00;102708.41;5187446;28;20392;-79
2021/11/24 02:24:45;;;;;;;192.38;61.70;;;;;;;5.68;100.00;102703.03;5186545;28;20176;-79
2021/11/24 02:27:15;;;;;;;186.65;56.42;;;;;;;5.79;100.00;102694.41;5186513;28;20026;-79
2021/11/24 02:29:46;;;;;;;179.55;56.72;;;;;;;5.92;100.00;102690.97;5187005;28;20026;-79
2021/11/24 02:32:17;;;;;;;173.45;55.20;;;;;;;5.93;100.00;102687.34;5186849;28;20080;-79
2021/11/24 02:34:47;;;;;;;217.57;60.20;;;;;;;5.85;100.00;102684.22;5185863;28;20423;-80
2021/11/24 02:37:19;;;;;;;193.93;59.85;;;;;;;5.79;100.00;102684.59;5188284;28;20033;-79
2021/11/24 02:39:50;;;;;;;200.43;59.22;;;;;;;5.77;100.00;102686.47;5188958;28;20032;-79
2021/11/24 02:42:20;;;;;;;171.40;54.28;;;;;;;5.75;100.00;102677.72;5189514;28;20026;-79
2021/11/24 02:44:52;;;;;;;195.20;56.80;;;;;;;5.71;100.00;102671.72;5189331;28;20104;-79
2021/11/24 02:47:22;;;;;;;185.93;57.08;;;;;;;5.68;100.00;102671.91;5188922;28;20032;-79
2021/11/24 02:49:55;;;;;;;179.73;55.90;;;;;;;5.67;100.00;102671.97;5194605;28;20034;-79
2021/11/24 02:52:26;;;;;;;198.13;58.65;;;;;;;5.66;100.00;102668.47;5195927;28;20018;-78
2021/11/24 02:55:01;;;;;;;169.98;56.80;;;;;;;5.65;100.00;102658.78;5203650;28;20075;-79
2021/11/24 02:57:33;;;;;;;169.18;55.55;;;;;;;5.66;100.00;102662.28;5190066;28;20105;-79
2021/11/24 03:00:11;;;;;;;196.65;57.58;;;;;;;5.66;100.00;102662.28;5185942;28;20030;-79
2021/11/24 03:02:44;;;;;;;208.38;61.38;;;;;;;5.65;100.00;102664.09;5185887;28;20030;-79
2021/11/24 03:05:18;;;;;;;179.48;57.65;;;;;;;5.66;100.00;102660.47;5185718;28;20025;-79
2021/11/24 03:07:50;;;;;;;195.20;59.35;;;;;;;5.65;100.00;102655.25;5185954;28;20026;-79
2021/11/24 03:10:20;;;;;;;213.48;61.08;;;;;;;5.66;100.00;102648.97;5170394;28;20022;-79
2021/11/24 03:12:51;;;;;;;199.43;61.00;;;;;;;5.65;100.00;102650.78;5169151;28;20108;-79
2021/11/24 03:15:22;;;;;;;183.55;57.70;;;;;;;5.65;100.00;102634.81;5182309;28;20054;-79
2021/11/24 03:17:53;;;;;;;198.50;59.05;;;;;;;5.65;100.00;102642.78;5186539;28;20501;-79
2021/11/24 03:20:27;;;;;;;192.60;57.33;;;;;;;5.64;100.00;102633.09;5186428;28;20661;-79
2021/11/24 03:22:58;;;;;;;195.32;55.75;;;;;;;5.70;100.00;102638.06;5186549;28;20033;-79
2021/11/24 03:25:29;;;;;;;173.32;52.80;;;;;;;5.66;100.00;102631.19;5186025;28;20045;-79
2021/11/24 03:28:00;;;;;;;160.82;52.88;;;;;;;5.63;100.00;102625.22;5185530;28;20105;-79
2021/11/24 03:30:33;;;;;;;170.73;56.28;;;;;;;5.61;100.00;102621.75;5186551;28;20022;-80
2021/11/24 03:33:04;;;;;;;191.77;57.20;;;;;;;5.60;100.00;102615.56;5186238;28;20393;-79
2021/11/24 03:35:35;;;;;;;184.40;58.28;;;;;;;5.61;100.00;102614.63;5186165;28;20033;-79
2021/11/24 03:38:07;;;;;;;199.98;61.65;;;;;;;5.62;100.00;102612.81;5186486;28;20022;-79
2021/11/24 03:40:38;;;;;;;209.20;57.83;;;;;;;5.65;100.00;102608.19;5186396;28;20499;-79
2021/11/24 03:43:08;;;;;;;184.52;58.17;;;;;;;5.69;100.00;102607.06;5186541;28;20033;-79
2021/11/24 03:45:39;;;;;;;220.68;62.05;;;;;;;5.69;100.00;102603.53;5185963;28;20037;-79
2021/11/24 03:48:11;;;;;;;184.82;54.72;;;;;;;5.66;100.00;102590.38;5186432;28;20073;-79
2021/11/24 03:50:42;;;;;;;244.93;64.45;;;;;;;5.64;100.00;102584.31;5186542;28;20026;-79
2021/11/24 03:53:12;;;;;;;275.10;66.80;;;;;;;5.62;100.00;102592.41;5186437;28;20029;-80
2021/11/24 03:55:43;;;;;;;291.38;65.90;;;;;;;5.62;100.00;102587.06;5186210;28;20056;-80
2021/11/24 03:58:13;;;;;;;205.93;61.65;;;;;;;5.60;100.00;102586.28;5185631;28;20621;-80
2021/11/24 04:00:44;;;;;;;298.58;70.28;;;;;;;5.60;100.00;102582.78;5185346;28;20022;-80
2021/11/24 04:03:14;;;;;;;460.13;78.90;;;;;;;5.57;100.00;102580.28;5186334;28;20048;-79
2021/11/24 04:05:45;;;;;;;283.38;71.68;;;;;;;5.56;100.00;102582.09;5185950;28;20570;-79
2021/11/24 04:08:15;;;;;;;484.90;78.50;;;;;;;5.54;100.00;102581.34;5186214;28;20393;-79
2021/11/24 04:10:46;;;;;;;389.67;74.43;;;;;;;5.53;100.00;102582.28;5167369;28;20120;-79
2021/11/24 04:13:17;;;;;;;395.70;73.63;;;;;;;5.51;100.00;102570.00;5168417;28;20037;-79
2021/11/24 04:15:47;;;;;;;283.65;70.60;;;;;;;5.52;100.00;102569.91;5186285;28;20021;-79
2021/11/24 04:18:18;;;;;;;432.75;78.93;;;;;;;5.52;100.00;102577.91;5187072;28;20053;-79
2021/11/24 04:20:48;;;;;;;367.70;73.35;;;;;;;5.53;100.00;102568.97;5184512;28;20428;-79
2021/11/24 04:23:19;;;;;;;200.05;59.60;;;;;;;5.56;100.00;102555.47;5184740;28;20045;-79
2021/11/24 04:25:49;;;;;;;251.77;63.80;;;;;;;5.69;100.00;102548.47;5182994;28;20049;-79
2021/11/24 04:28:19;;;;;;;446.20;80.43;;;;;;;5.61;100.00;102550.72;5184073;28;20041;-79
2021/11/24 04:30:50;;;;;;;378.13;78.32;;;;;;;5.57;100.00;102556.31;5184421;28;20559;-79
2021/11/24 04:33:21;;;;;;;217.88;65.60;;;;;;;5.55;100.00;102550.25;5184348;28;20026;-79
2021/11/24 04:35:51;;;;;;;221.00;66.90;;;;;;;5.54;100.00;102553.88;5182733;28;20535;-79
2021/11/24 04:38:21;;;;;;;466.15;76.22;;;;;;;5.54;100.00;102545.88;5184459;28;20018;-79
2021/11/24 04:40:53;;;;;;;508.23;78.28;;;;;;;5.55;100.00;102544.91;5183623;28;20140;-79
2021/11/24 04:43:28;;;;;;;424.23;76.30;;;;;;;5.53;100.00;102555.66;5184505;28;20026;-79
2021/11/24 04:46:00;;;;;;;;;;;;;;;5.51;100.00;102551.38;5184307;28;20701;-79
2021/11/24 04:48:31;;;;;;;447.35;75.22;;;;;;;5.49;100.00;102554.13;5184219;28;20365;-79
2021/11/24 04:51:01;;;;;;;337.45;72.68;;;;;;;5.49;100.00;102550.63;5182627;28;20045;-79
2021/11/24 04:53:32;;;;;;;338.88;76.70;;;;;;;5.49;100.00;102553.28;5184258;28;20105;-79
2021/11/24 04:56:03;;;;;;;351.50;75.05;;;;;;;5.49;100.00;102545.28;5183809;28;20489;-79
2021/11/24 04:58:44;;;;;;;415.77;75.88;;;;;;;5.49;100.00;102545.28;5183897;28;20025;-80
2021/11/24 05:01:14;;;;;;;374.85;78.60;;;;;;;5.50;100.00;102539.03;5183464;28;20030;-79
2021/11/24 05:03:45;;;;;;;446.92;82.05;;;;;;;5.50;100.00;102534.53;5184416;28;20092;-78
2021/11/24 05:06:17;;;;;;;420.30;79.88;;;;;;;5.51;100.00;102533.59;5184395;28;20029;-79
2021/11/24 05:08:49;;;;;;;336.85;74.40;;;;;;;5.50;100.00;102529.22;5181435;28;20038;-78
2021/11/24 05:11:20;;;;;;;319.30;75.80;;;;;;;5.50;100.00;102523.91;5164186;28;20034;-78
2021/11/24 05:13:54;;;;;;;230.80;65.47;;;;;;;5.52;100.00;102526.47;5171471;28;20535;-78
2021/11/24 05:16:30;;;;;;;239.20;64.32;;;;;;;5.53;100.00;102520.22;5183940;28;20034;-78
2021/11/24 05:19:02;;;;;;;237.65;64.55;;;;;;;5.53;100.00;102521.06;5184320;28;20102;-78
2021/11/24 05:21:36;;;;;;;265.52;69.70;;;;;;;5.52;100.00;102526.47;5184444;28;20456;-78
2021/11/24 05:24:07;;;;;;;255.50;66.68;;;;;;;5.49;100.00;102516.00;5184262;28;20544;-78
2021/11/24 05:26:37;;;;;;;340.77;76.18;;;;;;;5.47;100.00;102513.41;5183444;28;20100;-78
2021/11/24 05:29:08;;;;;;;324.67;76.93;;;;;;;5.44;100.00;102516.28;5184056;28;20081;-78
2021/11/24 05:31:39;;;;;;;390.35;78.57;;;;;;;5.44;100.00;102513.63;5185392;28;20030;-78
2021/11/24 05:34:10;;;;;;;379.10;74.25;;;;;;;5.45;100.00;102513.53;5184809;28;20030;-78
2021/11/24 05:36:41;;;;;;;453.70;80.70;;;;;;;5.43;100.00;102512.78;5185640;28;20033;-78
2021/11/24 05:39:12;;;;;;;227.50;67.43;;;;;;;5.44;100.00;102510.97;5186068;28;20077;-78
2021/11/24 05:41:43;;;;;;;356.23;80.35;;;;;;;5.43;100.00;102502.13;5186577;28;20061;-78
2021/11/24 05:44:20;;;;;;;424.05;77.18;;;;;;;5.44;100.00;102502.97;5185783;28;20029;-78
2021/11/24 05:46:56;;;;;;;456.77;83.40;;;;;;;5.44;100.00;102502.97;5185823;28;20021;-78
2021/11/24 05:49:28;;;;;;;424.25;78.63;;;;;;;5.44;100.00;102503.84;5185046;28;20068;-78
2021/11/24 05:51:59;;;;;;;297.77;73.20;;;;;;;5.44;100.00;102500.31;5185784;28;20029;-79
2021/11/24 05:54:29;;;;;;;240.27;66.88;;;;;;;5.46;100.00;102496.59;5185808;28;20043;-78
2021/11/24 05:57:00;;;;;;;266.20;73.13;;;;;;;5.48;100.00;102501.00;5185354;28;20017;-78
2021/11/24 05:59:33;;;;;;;374.65;77.68;;;;;;;5.46;100.00;102490.41;5185278;28;20089;-78
2021/11/24 06:02:03;;;;;;;239.50;70.35;;;;;;;5.46;100.00;102501.91;5184738;28;20537;-78
2021/11/24 06:04:34;;;;;;;325.60;76.75;;;;;;;5.46;100.00;102493.94;5184828;28;20026;-78
2021/11/24 06:07:04;;;;;;;348.20;78.53;;;;;;;5.47;100.00;102502.78;5184611;28;20033;-78
2021/11/24 06:09:35;;;;;;;337.45;76.53;;;;;;;5.48;100.00;102490.34;5174235;28;20061;-78
2021/11/24 06:12:06;;;;;;;263.63;75.43;;;;;;;5.48;100.00;102487.69;5164634;28;20041;-78
2021/11/24 06:14:37;;;;;;;301.35;78.35;;;;;;;5.48;100.00;102493.00;5175219;28;20034;-78
2021/11/24 06:17:07;;;;;;;255.88;74.47;;;;;;;5.48;100.00;102490.34;5183458;28;20384;-78
2021/11/24 06:19:37;;;;;;;236.82;70.85;;;;;;;5.49;100.00;102482.25;5183608;28;20022;-78
2021/11/24 06:22:08;;;;;;;329.88;78.70;;;;;;;5.51;100.00;102487.47;5183877;28;20040;-78
2021/11/24 06:24:39;;;;;;;319.70;78.15;;;;;;;5.51;100.00;102482.16;5169843;28;20963;-78
2021/11/24 06:27:09;;;;;;;242.50;71.00;;;;;;;5.51;100.00;102472.38;5183421;28;20054;-79
2021/11/24 06:29:40;;;;;;;300.85;75.97;;;;;;;5.52;100.00;102478.53;5182419;28;20508;-81
2021/11/24 06:32:11;;;;;;;257.50;70.57;;;;;;;5.52;100.00;102475.88;5183795;28;20053;-83
2021/11/24 06:34:41;;;;;;;269.83;73.25;;;;;;;5.53;100.00;102477.63;5184347;28;20026;-83
2021/11/24 06:37:12;;;;;;;239.75;68.07;;;;;;;5.52;100.00;102475.88;5183322;28;20516;-81
2021/11/24 06:39:42;;;;;;;247.00;70.93;;;;;;;5.54;100.00;102480.19;5182233;28;20048;-78
2021/11/24 06:42:13;;;;;;;264.23;68.82;;;;;;;5.53;100.00;102470.47;5184360;28;20049;-78
2021/11/24 06:44:43;;;;;;;271.80;70.30;;;;;;;5.53;100.00;102470.47;5182480;28;20022;-83
2021/11/24 06:47:14;;;;;;;243.70;68.35;;;;;;;5.54;100.00;102466.88;5167407;28;20072;-80
2021/11/24 06:49:45;;;;;;;277.95;70.40;;;;;;;5.55;100.00;102473.91;5181924;28;20037;-81
2021/11/24 06:52:16;;;;;;;269.13;67.07;;;;;;;5.56;100.00;102467.63;5183505;28;20497;-80
2021/11/24 06:54:47;;;;;;;258.98;67.28;;;;;;;5.55;100.00;102459.72;5182825;28;20087;-79
2021/11/24 06:57:17;;;;;;;268.00;66.80;;;;;;;5.55;100.00;102473.03;5183364;28;20504;-82
2021/11/24 06:59:48;;;;;;;288.67;68.10;;;;;;;5.55;100.00;102478.38;5185054;28;20073;-79
2021/11/24 07:02:18;;;;;;;230.25;65.75;;;;;;;5.56;100.00;102469.41;5183220;28;20060;-78
2021/11/24 07:04:49;;;;;;;250.18;66.53;;;;;;;5.56;100.00;102472.09;5183223;28;20029;-78
2021/11/24 07:07:20;;;;;;;260.42;68.57;;;;;;;5.57;100.00;102471.13;5182681;28;20569;-78
2021/11/24 07:09:50;;;;;;;271.83;69.88;;;;;;;5.59;100.00;102472.75;5171553;28;20050;-79
2021/11/24 07:12:24;;;;;;;266.33;67.53;;;;;;;5.58;100.00;102465.72;5165474;28;20022;-80
2021/11/24 07:14:56;;;;;;;297.50;69.38;;;;;;;5.59;100.00;102472.75;5175535;28;20133;-80
2021/11/24 07:17:26;;;;;;;260.98;68.50;;;;;;;5.59;100.00;102478.09;5183224;28;20130;-80
2021/11/24 07:19:57;;;;;;;289.95;69.18;;;;;;;5.60;100.00;102470.94;5182167;28;20026;-80
2021/11/24 07:22:27;;;;;;;289.52;68.35;;;;;;;5.60;100.00;102461.16;5185517;28;20519;-81
2021/11/24 07:24:58;;;;;;;278.48;71.57;;;;;;;5.61;100.00;102465.53;5186661;28;20029;-80
2021/11/24 07:27:29;;;;;;;302.17;73.30;;;;;;;5.61;100.00;102467.34;5185582;28;20536;-81
2021/11/24 07:29:59;;;;;;;294.00;68.63;;;;;;;5.62;100.00;102471.69;5186436;28;20053;-81
2021/11/24 07:32:30;;;;;;;285.08;66.28;;;;;;;5.61;100.00;102472.66;5186199;28;20112;-81
2021/11/24 07:35:02;;;;;;;282.98;64.00;;;;;;;5.63;100.00;102465.44;5186180;28;20037;-81
2021/11/24 07:37:32;;;;;;;288.40;62.97;;;;;;;5.65;100.00;102474.19;5185387;28;20033;-81
2021/11/24 07:40:05;;;;;;;281.25;63.45;;;;;;;5.64;100.00;102468.00;5185979;28;20485;-81
2021/11/24 07:42:36;;;;;;;284.65;64.40;;;;;;;5.65;100.00;102463.53;5184731;28;20037;-81
2021/11/24 07:45:08;;;;;;;271.30;62.05;;;;;;;5.67;100.00;102469.59;5185033;28;20018;-81
2021/11/24 07:47:38;;;;;;;293.42;63.67;;;;;;;5.69;100.00;102471.25;5184879;28;20021;-81
2021/11/24 07:50:09;;;;;;;312.52;63.83;;;;;;;5.70;100.00;102470.28;5186327;28;20454;-81
2021/11/24 07:52:39;;;;;;;302.02;61.28;;;;;;;5.73;100.00;102466.59;5185827;28;20029;-81
2021/11/24 07:55:10;;;;;;;269.60;57.13;;;;;;;5.72;100.00;102472.84;5185847;28;20025;-81
2021/11/24 07:57:40;;;;;;;262.45;55.53;;;;;;;5.73;100.00;102471.91;5185731;28;20022;-81
2021/11/24 08:00:12;;;;;;;259.50;53.75;;;;;;;5.72;100.00;102463.06;5184031;28;20033;-81
2021/11/24 08:02:43;;;;;;;261.58;52.58;;;;;;;5.71;100.00;102453.34;5175893;28;20030;-81
2021/11/24 08:05:13;;;;;;;274.27;60.05;;;;;;;5.75;100.00;102455.84;5171639;28;20100;-81
2021/11/24 08:07:44;;;;;;;257.40;53.47;;;;;;;5.72;100.00;102454.19;5171290;28;20026;-81
2021/11/24 08:10:17;;;;;;;280.95;55.88;;;;;;;5.71;100.00;102445.34;5184374;28;20036;-82
2021/11/24 08:12:47;;;;;;;252.45;55.22;;;;;;;5.71;100.00;102445.34;5180931;28;20026;-82
2021/11/24 08:15:18;;;;;;;276.05;54.75;;;;;;;5.75;100.00;102443.38;5175643;28;20034;-83
2021/11/24 08:17:48;;;;;;;274.95;57.20;;;;;;;5.78;100.00;102440.53;5175107;28;20030;-80
2021/11/24 08:20:19;;;;;;;276.50;53.22;;;;;;;5.82;100.00;102439.34;5184364;28;20021;-80
2021/11/24 08:22:50;;;;;;;277.83;59.45;;;;;;;5.88;100.00;102435.47;5183144;28;20172;-80
2021/11/24 08:25:20;;;;;;;266.13;57.70;;;;;;;5.88;100.00;102427.50;5182997;28;20037;-80
2021/11/24 08:27:51;;;;;;;257.25;54.42;;;;;;;5.89;100.00;102429.19;5183476;28;20022;-80
2021/11/24 08:30:22;;;;;;;277.60;58.92;;;;;;;5.86;100.00;102427.56;5184137;28;20030;-82
2021/11/24 08:32:53;;;;;;;248.57;52.72;;;;;;;5.84;100.00;102418.81;5182998;28;20522;-79
2021/11/24 08:35:24;;;;;;;274.55;57.80;;;;;;;5.86;100.00;102410.72;5183990;28;20105;-79
2021/11/24 08:37:55;;;;;;;238.13;53.17;;;;;;;5.85;100.00;102404.56;5184362;28;20108;-79
2021/11/24 08:40:26;;;;;;;219.00;49.25;;;;;;;5.94;100.00;102412.00;5183776;28;20772;-79
2021/11/24 08:42:56;;;;;;;220.90;49.90;;;;;;;5.99;100.00;102416.19;5184121;28;20069;-79
2021/11/24 08:45:27;;;;;;;227.02;47.88;;;;;;;5.97;100.00;102410.94;5182652;28;20045;-79
2021/11/24 08:47:57;;;;;;;235.50;49.85;;;;;;;5.96;100.00;102415.41;5183681;28;20026;-79
2021/11/24 08:50:29;;;;;;;238.57;48.13;;;;;;;5.96;100.00;102404.75;5182793;28;20048;-79
2021/11/24 08:53:02;;;;;;;232.35;50.00;;;;;;;6.00;100.00;102410.75;5183671;28;20029;-91
2021/11/24 08:55:33;;;;;;;210.55;47.25;;;;;;;5.97;100.00;102405.59;5184854;28;20354;-80
2021/11/24 08:58:03;;;;;;;216.35;46.22;;;;;;;5.98;100.00;102404.66;5184816;28;20020;-81
2021/11/24 09:00:40;;;;;;;247.77;51.08;;;;;;;6.01;100.00;102408.94;5190956;28;20118;-80
2021/11/24 09:03:11;;;;;;;263.10;50.88;;;;;;;6.01;100.00;102408.94;5193128;28;20038;-78
2021/11/24 09:05:42;;;;;;;244.05;50.38;;;;;;;6.01;100.00;102404.44;5183186;28;20072;-78
2021/11/24 09:08:13;;;;;;;256.15;51.42;;;;;;;6.00;100.00;102405.41;5182985;28;20026;-80
2021/11/24 09:10:44;;;;;;;270.42;52.92;;;;;;;6.05;100.00;102397.13;5177701;28;20030;-80
2021/11/24 09:13:15;;;;;;;283.02;55.45;;;;;;;6.06;100.00;102396.16;5166083;28;20026;-81
2021/11/24 09:15:45;;;;;;;251.88;49.47;;;;;;;6.09;100.00;102393.31;5189783;28;20069;-78
2021/11/24 09:18:17;;;;;;;270.52;55.63;;;;;;;6.13;100.00;102386.84;5179661;28;20022;-78
2021/11/24 09:21:11;;;;;;;251.63;52.35;;;;;;;6.16;100.00;102395.47;5193027;28;20397;-78
2021/11/24 09:23:44;;;;;;;284.13;54.78;;;;;;;6.15;100.00;102387.56;5195237;28;20053;-77
2021/11/24 09:26:17;;;;;;;232.45;51.97;;;;;;;6.18;100.00;102390.91;5198771;28;20022;-77
2021/11/24 09:28:47;;;;;;;200.18;47.25;;;;;;;6.20;100.00;102382.81;5185194;28;20029;-82
2021/11/24 09:31:18;;;;;;;205.82;48.08;;;;;;;6.20;100.00;102383.66;5177199;28;20038;-75
2021/11/24 09:33:48;;;;;;;201.73;46.95;;;;;;;6.22;100.00;102380.88;5184151;28;20156;-77
2021/11/24 09:36:19;;;;;;;213.20;49.38;;;;;;;6.22;100.00;102372.88;5183739;28;20029;-76
2021/11/24 09:38:50;;;;;;;214.82;49.75;;;;;;;6.24;100.00;102365.66;5182919;28;20041;-77
2021/11/24 09:41:24;;;;;;;205.75;47.72;;;;;;;6.24;100.00;102355.00;5182892;28;20068;-78
2021/11/24 09:43:56;;;;;;;216.55;51.67;;;;;;;6.27;100.00;102360.13;5171043;28;20022;-78
2021/11/24 09:46:27;;;;;;;216.65;47.97;;;;;;;6.28;100.00;102361.84;5179422;28;20443;-75
2021/11/24 09:48:59;;;;;;;216.65;49.60;;;;;;;6.30;100.00;102357.25;5182037;28;20076;-78
2021/11/24 09:51:32;;;;;;;195.27;46.53;;;;;;;6.35;100.00;102351.63;5182607;28;20026;-76
2021/11/24 09:54:04;;;;;;;217.63;46.67;;;;;;;6.31;100.00;102350.97;5182028;28;20030;-76
2021/11/24 09:56:39;;;;;;;195.93;46.08;;;;;;;6.33;100.00;102350.88;5181834;28;20022;-76
2021/11/24 09:59:10;;;;;;;186.85;46.38;;;;;;;6.35;100.00;102340.97;5182053;28;20087;-76
2021/11/24 10:01:41;;;;;;;192.65;46.58;;;;;;;6.40;100.00;102339.69;5180404;28;20574;-76
2021/11/24 10:04:12;;;;;;;177.82;42.38;;;;;;;6.45;100.00;102350.91;5181656;28;20049;-76
2021/11/24 10:06:42;;;;;;;173.68;41.38;;;;;;;6.46;100.00;102341.94;5180967;28;20061;-77
2021/11/24 10:09:13;;;;;;;166.90;41.03;;;;;;;6.47;100.00;102338.31;5180317;28;20552;-76
2021/11/24 10:11:43;;;;;;;166.73;41.38;;;;;;;6.49;100.00;102343.56;5180617;28;20087;-76
2021/11/24 10:14:14;;;;;;;156.60;40.92;;;;;;;6.52;100.00;102339.81;5172313;28;20163;-76
2021/11/24 10:16:46;;;;;;;143.68;39.33;;;;;;;6.54;100.00;102335.25;5181914;28;20447;-76
2021/11/24 10:19:16;;;;;;;159.02;41.13;;;;;;;6.56;100.00;102328.84;5181814;28;20088;-76
2021/11/24 10:21:56;;;;;;;133.35;35.80;;;;;;;6.55;100.00;102323.63;5181727;28;20537;-76
2021/11/24 10:24:30;;;;;;;152.57;38.65;;;;;;;6.55;100.00;102321.81;5180694;28;20454;-76
2021/11/24 10:27:04;;;;;;;142.75;38.08;;;;;;;6.55;100.00;102313.81;5181995;28;20029;-77
2021/11/24 10:29:37;;;;;;;140.82;37.17;;;;;;;6.59;100.00;102304.66;5182257;28;20026;-76
2021/11/24 10:32:10;;;;;;;136.95;35.67;;;;;;;6.62;100.00;102300.91;5183248;28;20096;-77
2021/11/24 10:34:42;;;;;;;125.15;33.88;;;;;;;6.65;100.00;102288.22;5180776;28;20036;-76
2021/11/24 10:37:16;;;;;;;129.20;36.55;;;;;;;6.69;100.00;102294.22;5183184;28;20076;-77
2021/11/24 10:39:50;;;;;;;133.45;36.55;;;;;;;6.73;100.00;102291.22;5180047;28;20087;-76
2021/11/24 10:42:25;;;;;;;133.80;39.47;;;;;;;6.77;100.00;102288.31;5181694;28;20030;-77
2021/11/24 10:44:58;;;;;;;143.48;36.95;;;;;;;6.80;100.00;102286.31;5181141;28;20288;-77
2021/11/24 10:47:29;;;;;;;122.18;35.08;;;;;;;6.79;100.00;102275.75;5180094;28;20030;-77
2021/11/24 10:50:03;;;;;;;120.05;35.95;;;;;;;6.82;100.00;102270.19;5180067;28;20180;-77
2021/11/24 10:52:38;;;;;;;112.63;33.47;;;;;;;6.81;100.00;102269.34;5181810;28;20026;-77
2021/11/24 10:55:11;;;;;;;115.65;32.55;;;;;;;6.83;100.00;102261.22;5181617;28;20065;-77
2021/11/24 10:57:45;;;;;;;119.45;33.95;;;;;;;6.84;100.00;102269.13;5183630;28;20109;-77
2021/11/24 11:00:22;;;;;;;111.40;33.08;;;;;;;6.80;100.00;102267.63;5183987;28;20034;-76
2021/11/24 11:02:52;;;;;;;108.15;33.30;;;;;;;6.80;100.00;102259.63;5165337;28;20036;-76
2021/11/24 11:05:25;;;;;;;107.90;32.30;;;;;;;6.81;100.00;102253.34;5180113;28;20025;-76
2021/11/24 11:08:01;;;;;;;102.30;32.67;;;;;;;6.84;100.00;102250.47;5185153;28;20022;-76
2021/11/24 11:10:37;;;;;;;82.47;29.60;;;;;;;6.82;100.00;102249.69;5184838;28;20148;-76
2021/11/24 11:13:11;;;;;;;94.03;30.50;;;;;;;6.87;100.00;102239.56;5178364;28;20046;-76
2021/11/24 11:15:48;;;;;;;102.45;32.78;;;;;;;6.85;100.00;102238.81;5183849;28;20485;-76
2021/11/24 11:18:27;;;;;;;100.93;33.97;;;;;;;6.82;100.00;102233.69;5183681;28;20014;-76
2021/11/24 11:21:02;;;;;;;98.22;32.38;;;;;;;6.80;100.00;102222.28;5174735;28;20029;-76